createdAt,value
2018-10-01T00:00:16.698Z,124.9447
2018-10-01T00:01:21.814Z,124.6937
2018-10-01T00:02:27.064Z,123.9353
2018-10-01T00:03:32.032Z,124.1864
2018-10-01T00:04:37.351Z,124.44
2018-10-01T00:05:42.501Z,123.6817
2018-10-01T00:06:48.193Z,124.6937
2018-10-01T00:07:53.642Z,124.44
2018-10-01T00:08:59.157Z,124.6937
2018-10-01T00:10:03.582Z,124.44
2018-10-01T00:11:08.169Z,124.1864
2018-10-01T00:12:13.312Z,124.6937
2018-10-01T00:13:18.531Z,124.6937
2018-10-01T00:14:24.019Z,124.6937
2018-10-01T00:15:29.011Z,124.9447
2018-10-01T00:16:34.001Z,124.6937
2018-10-01T00:17:39.233Z,124.6937
2018-10-01T00:18:44.935Z,124.6937
2018-10-01T00:19:49.547Z,124.1864
2018-10-01T00:20:54.118Z,124.44
2018-10-01T00:21:59.798Z,124.44
2018-10-01T00:23:05.321Z,125.452
2018-10-01T00:24:10.227Z,124.44
2018-10-01T00:25:16.112Z,125.452
2018-10-01T00:26:21.585Z,126.0413
2018-10-01T00:27:41.687Z,125.452
2018-10-01T00:28:46.839Z,126.2949
2018-10-01T00:29:52.008Z,125.8722
2018-10-01T00:30:57.567Z,126.7996
2018-10-01T00:32:02.493Z,127.0506
2018-10-01T00:33:07.418Z,126.0413
2018-10-01T00:34:12.943Z,126.2949
2018-10-01T00:35:18.096Z,125.7876
2018-10-01T00:36:23.320Z,125.6185
2018-10-01T00:37:29.770Z,125.6185
2018-10-01T00:38:35.238Z,125.6185
2018-10-01T00:39:40.952Z,125.452
2018-10-01T00:40:46.107Z,127.0506
2018-10-01T00:41:51.029Z,127.0506
2018-10-01T00:42:56.316Z,126.0413
2018-10-01T00:44:01.551Z,126.0413
2018-10-01T00:45:06.162Z,126.7996
2018-10-01T00:46:10.454Z,126.0413
2018-10-01T00:47:15.598Z,126.2949
2018-10-01T00:48:21.039Z,126.2949
2018-10-01T00:49:25.362Z,127.3043
2018-10-01T00:50:30.828Z,125.6185
2018-10-01T00:51:36.638Z,126.2949
2018-10-01T00:52:42.263Z,126.2949
2018-10-01T00:53:47.116Z,126.0413
2018-10-01T00:54:52.782Z,126.7996
2018-10-01T00:55:57.762Z,125.6185
2018-10-01T00:57:02.725Z,126.7996
2018-10-01T00:58:08.444Z,126.2949
2018-10-01T00:59:13.900Z,126.7996
2018-10-01T01:00:19.061Z,127.3043
2018-10-01T01:01:24.486Z,127.3043
2018-10-01T01:02:29.817Z,126.7996
2018-10-01T01:03:35.453Z,125.6185
2018-10-01T01:04:40.376Z,126.0413
2018-10-01T01:05:45.823Z,127.3043
2018-10-01T01:06:50.939Z,127.558
2018-10-01T01:07:56.447Z,127.3043
2018-10-01T01:09:01.921Z,127.3043
2018-10-01T01:10:06.827Z,126.7996
2018-10-01T01:11:12.270Z,127.0506
2018-10-01T01:12:17.491Z,126.2949
2018-10-01T01:13:22.992Z,127.3043
2018-10-01T01:14:27.373Z,126.2949
2018-10-01T01:15:33.367Z,127.558
2018-10-01T01:16:38.800Z,127.3043
2018-10-01T01:17:43.965Z,127.3043
2018-10-01T01:18:49.229Z,127.0506
2018-10-01T01:19:54.375Z,127.558
2018-10-01T01:20:59.812Z,127.558
2018-10-01T01:22:05.253Z,127.3043
2018-10-01T01:23:10.415Z,127.0506
2018-10-01T01:24:15.597Z,127.3043
2018-10-01T01:25:21.101Z,128.0626
2018-10-01T01:26:26.241Z,127.809
2018-10-01T01:27:31.469Z,127.809
2018-10-01T01:28:36.131Z,128.0626
2018-10-01T01:29:41.561Z,127.558
2018-10-01T01:30:46.978Z,127.3043
2018-10-01T01:31:52.190Z,127.3043
2018-10-01T01:32:57.344Z,127.558
2018-10-01T01:34:02.673Z,127.809
2018-10-01T01:35:07.297Z,127.3043
2018-10-01T01:36:12.731Z,126.7996
2018-10-01T01:37:18.582Z,126.0413
2018-10-01T01:38:23.813Z,127.3043
2018-10-01T01:39:29.955Z,127.3043
2018-10-01T01:40:35.424Z,127.0506
2018-10-01T01:41:40.323Z,127.0506
2018-10-01T01:42:45.791Z,126.2949
2018-10-01T01:43:51.222Z,127.0506
2018-10-01T01:44:56.734Z,127.0506
2018-10-01T01:46:02.149Z,126.7996
2018-10-01T01:47:07.289Z,125.7876
2018-10-01T01:48:12.497Z,127.0506
2018-10-01T01:49:17.898Z,127.3043
2018-10-01T01:50:23.114Z,127.558
2018-10-01T01:51:28.753Z,126.7996
2018-10-01T01:52:34.318Z,126.7996
2018-10-01T01:53:39.826Z,126.7996
2018-10-01T01:54:45.509Z,127.809
2018-10-01T01:55:50.679Z,127.3043
2018-10-01T01:56:56.156Z,128.3163
2018-10-01T01:58:01.980Z,127.558
2018-10-01T01:59:06.891Z,128.0626
2018-10-01T02:00:11.855Z,127.809
2018-10-01T02:01:17.432Z,128.3163
2018-10-01T02:02:22.865Z,127.558
2018-10-01T02:03:28.483Z,127.558
2018-10-01T02:04:33.360Z,127.558
2018-10-01T02:05:38.829Z,128.3163
2018-10-01T02:06:44.460Z,128.3163
2018-10-01T02:07:49.612Z,127.3043
2018-10-01T02:08:55.041Z,127.558
2018-10-01T02:10:00.568Z,127.558
2018-10-01T02:11:06.142Z,127.0506
2018-10-01T02:12:11.024Z,127.558
2018-10-01T02:13:16.735Z,127.3043
2018-10-01T02:14:22.169Z,128.0626
2018-10-01T02:15:28.103Z,127.0506
2018-10-01T02:16:33.319Z,127.558
2018-10-01T02:17:38.457Z,127.558
2018-10-01T02:18:43.854Z,127.809
2018-10-01T02:19:49.345Z,128.3163
2018-10-01T02:20:54.512Z,127.3043
2018-10-01T02:22:00.193Z,127.809
2018-10-01T02:23:05.652Z,127.809
2018-10-01T02:24:11.087Z,128.3163
2018-10-01T02:25:16.808Z,128.9055
2018-10-01T02:26:22.096Z,127.809
2018-10-01T02:27:28.127Z,127.0506
2018-10-01T02:28:33.563Z,128.57
2018-10-01T02:29:38.991Z,128.57
2018-10-01T02:30:44.755Z,128.9055
2018-10-01T02:31:49.051Z,129.1592
2018-10-01T02:32:54.524Z,128.7364
2018-10-01T02:34:00.302Z,128.9055
2018-10-01T02:35:05.179Z,129.4102
2018-10-01T02:36:10.384Z,129.6639
2018-10-01T02:37:15.838Z,130.1712
2018-10-01T02:38:20.438Z,129.6639
2018-10-01T02:39:40.306Z,129.1592
2018-10-01T02:40:45.737Z,129.6639
2018-10-01T02:41:50.631Z,129.6639
2018-10-01T02:42:56.349Z,128.9055
2018-10-01T02:44:01.506Z,128.57
2018-10-01T02:45:06.434Z,129.9176
2018-10-01T02:46:11.969Z,130.4222
2018-10-01T02:47:17.105Z,129.9176
2018-10-01T02:48:22.330Z,130.4222
2018-10-01T02:49:42.404Z,129.9176
2018-10-01T02:50:47.882Z,129.9176
2018-10-01T02:51:53.565Z,129.4102
2018-10-01T02:52:59.040Z,129.1592
2018-10-01T02:54:04.490Z,129.1592
2018-10-01T02:55:10.119Z,129.1592
2018-10-01T02:56:15.304Z,129.1592
2018-10-01T02:57:20.450Z,129.1592
2018-10-01T02:58:25.669Z,128.0626
2018-10-01T02:59:30.861Z,128.57
2018-10-01T03:00:35.857Z,128.3163
2018-10-01T03:01:41.377Z,128.3163
2018-10-01T03:02:45.966Z,127.3043
2018-10-01T03:03:51.656Z,126.0413
2018-10-01T03:04:56.544Z,126.7996
2018-10-01T03:06:01.940Z,127.809
2018-10-01T03:07:07.286Z,128.3163
2018-10-01T03:08:12.793Z,128.3163
2018-10-01T03:09:17.949Z,128.7364
2018-10-01T03:10:23.520Z,128.3163
2018-10-01T03:11:28.376Z,127.3043
2018-10-01T03:12:33.776Z,128.57
2018-10-01T03:13:38.930Z,127.558
2018-10-01T03:14:44.121Z,127.558
2018-10-01T03:15:49.624Z,127.558
2018-10-01T03:16:55.043Z,128.3163
2018-10-01T03:17:59.918Z,127.809
2018-10-01T03:19:05.368Z,127.558
2018-10-01T03:20:10.581Z,127.3043
2018-10-01T03:21:16.323Z,127.809
2018-10-01T03:22:22.003Z,128.0626
2018-10-01T03:23:27.556Z,127.558
2018-10-01T03:24:32.847Z,127.809
2018-10-01T03:25:38.356Z,127.809
2018-10-01T03:26:43.507Z,128.0626
2018-10-01T03:27:49.044Z,127.558
2018-10-01T03:28:54.255Z,127.809
2018-10-01T03:29:59.410Z,127.558
2018-10-01T03:31:05.147Z,128.57
2018-10-01T03:32:10.580Z,128.0626
2018-10-01T03:33:16.076Z,128.57
2018-10-01T03:34:21.598Z,128.3163
2018-10-01T03:35:27.089Z,126.7996
2018-10-01T03:36:32.741Z,128.0626
2018-10-01T03:37:37.983Z,127.809
2018-10-01T03:38:43.776Z,128.0626
2018-10-01T03:39:49.603Z,127.558
2018-10-01T03:40:54.797Z,127.558
2018-10-01T03:41:59.972Z,127.809
2018-10-01T03:43:05.523Z,127.558
2018-10-01T03:44:10.774Z,127.809
2018-10-01T03:45:15.932Z,128.0626
2018-10-01T03:46:21.333Z,127.558
2018-10-01T03:47:26.484Z,128.0626
2018-10-01T03:48:32.624Z,128.0626
2018-10-01T03:49:37.497Z,127.558
2018-10-01T03:50:42.079Z,127.809
2018-10-01T03:51:48.011Z,127.809
2018-10-01T03:52:52.913Z,127.558
2018-10-01T03:53:58.361Z,127.558
2018-10-01T03:55:03.077Z,127.3043
2018-10-01T03:56:08.514Z,128.0626
2018-10-01T03:57:13.748Z,127.3043
2018-10-01T03:58:19.481Z,126.7996
2018-10-01T03:59:24.624Z,126.2949
2018-10-01T04:00:30.398Z,126.0413
2018-10-01T04:01:35.634Z,127.0506
2018-10-01T04:02:41.166Z,127.558
2018-10-01T04:03:47.149Z,126.7996
2018-10-01T04:04:52.106Z,127.0506
2018-10-01T04:05:57.353Z,126.0413
2018-10-01T04:07:02.787Z,127.0506
2018-10-01T04:08:07.417Z,127.558
2018-10-01T04:09:12.571Z,127.809
2018-10-01T04:10:18.025Z,127.3043
2018-10-01T04:11:23.184Z,127.809
2018-10-01T04:12:28.470Z,127.3043
2018-10-01T04:13:33.918Z,128.4854
2018-10-01T04:14:39.426Z,127.558
2018-10-01T04:15:44.922Z,127.809
2018-10-01T04:16:50.362Z,127.558
2018-10-01T04:17:55.299Z,128.2318
2018-10-01T04:19:00.833Z,127.0506
2018-10-01T04:20:06.022Z,127.3043
2018-10-01T04:21:10.940Z,127.0506
2018-10-01T04:22:15.917Z,127.809
2018-10-01T04:23:21.078Z,127.0506
2018-10-01T04:24:41.155Z,128.0626
2018-10-01T04:25:46.312Z,127.558
2018-10-01T04:26:51.462Z,127.809
2018-10-01T04:27:57.145Z,127.3043
2018-10-01T04:29:02.612Z,127.0506
2018-10-01T04:30:07.831Z,125.7876
2018-10-01T04:31:13.399Z,127.558
2018-10-01T04:32:18.618Z,127.3043
2018-10-01T04:33:23.075Z,127.0506
2018-10-01T04:34:28.526Z,127.3043
2018-10-01T04:35:34.008Z,127.3043
2018-10-01T04:36:39.710Z,127.0506
2018-10-01T04:37:44.862Z,127.3043
2018-10-01T04:38:50.301Z,127.0506
2018-10-01T04:39:56.213Z,127.3043
2018-10-01T04:41:01.639Z,127.7271
2018-10-01T04:42:06.298Z,127.3043
2018-10-01T04:43:11.733Z,127.0506
2018-10-01T04:44:17.203Z,127.0506
2018-10-01T04:45:22.713Z,126.7996
2018-10-01T04:46:28.247Z,127.0506
2018-10-01T04:47:33.388Z,127.558
2018-10-01T04:48:38.603Z,127.0506
2018-10-01T04:49:43.297Z,125.5366
2018-10-01T04:50:48.459Z,126.0413
2018-10-01T04:51:54.181Z,126.2949
2018-10-01T04:52:59.152Z,125.5366
2018-10-01T04:54:04.559Z,125.3675
2018-10-01T04:55:10.005Z,126.2949
2018-10-01T04:56:14.654Z,124.9447
2018-10-01T04:57:19.561Z,124.9447
2018-10-01T04:58:25.971Z,124.6937
2018-10-01T04:59:31.535Z,123.428
2018-10-01T05:00:37.336Z,124.44
2018-10-01T05:01:43.022Z,124.1864
2018-10-01T05:02:47.616Z,125.1138
2018-10-01T05:03:53.193Z,124.44
2018-10-01T05:04:58.090Z,124.8602
2018-10-01T05:06:03.065Z,124.6937
2018-10-01T05:07:08.368Z,124.44
2018-10-01T05:08:13.629Z,123.6817
2018-10-01T05:09:18.879Z,124.8602
2018-10-01T05:10:24.344Z,124.6937
2018-10-01T05:11:29.212Z,123.6817
2018-10-01T05:12:34.674Z,124.44
2018-10-01T05:13:39.827Z,123.6817
2018-10-01T05:14:45.457Z,124.44
2018-10-01T05:15:51.130Z,124.1864
2018-10-01T05:16:56.271Z,124.8602
2018-10-01T05:18:01.305Z,124.6937
2018-10-01T05:19:06.983Z,124.6937
2018-10-01T05:20:12.412Z,124.1864
2018-10-01T05:21:17.564Z,123.428
2018-10-01T05:22:23.248Z,124.44
2018-10-01T05:23:28.179Z,124.44
2018-10-01T05:24:33.664Z,123.9353
2018-10-01T05:25:39.177Z,124.1864
2018-10-01T05:26:44.341Z,123.6817
2018-10-01T05:27:49.468Z,124.44
2018-10-01T05:28:54.667Z,123.9353
2018-10-01T05:29:59.255Z,123.177
2018-10-01T05:31:05.060Z,124.44
2018-10-01T05:32:10.270Z,124.44
2018-10-01T05:33:14.861Z,124.44
2018-10-01T05:34:20.264Z,124.6091
2018-10-01T05:35:25.422Z,123.6817
2018-10-01T05:36:31.007Z,123.6817
2018-10-01T05:37:35.593Z,123.9353
2018-10-01T05:38:40.731Z,123.177
2018-10-01T05:39:46.771Z,124.1864
2018-10-01T05:40:51.954Z,122.9233
2018-10-01T05:41:57.106Z,122.2495
2018-10-01T05:43:02.111Z,122.9233
2018-10-01T05:44:06.904Z,122.4186
2018-10-01T05:45:11.787Z,123.6817
2018-10-01T05:46:17.592Z,122.6723
2018-10-01T05:47:22.454Z,122.2495
2018-10-01T05:48:28.319Z,122.4186
2018-10-01T05:49:33.814Z,122.2495
2018-10-01T05:50:39.245Z,122.6723
2018-10-01T05:51:45.195Z,123.177
2018-10-01T05:52:50.394Z,122.4186
2018-10-01T05:53:55.821Z,121.9985
2018-10-01T05:55:01.819Z,121.4912
2018-10-01T05:56:06.989Z,120.9865
2018-10-01T05:57:12.147Z,121.7449
2018-10-01T05:58:18.726Z,121.9985
2018-10-01T05:59:23.649Z,121.2402
2018-10-01T06:00:28.896Z,122.2495
2018-10-01T06:01:33.767Z,120.9865
2018-10-01T06:02:38.634Z,120.7328
2018-10-01T06:03:44.433Z,121.2402
2018-10-01T06:04:49.937Z,120.7328
2018-10-01T06:05:55.665Z,119.808
2018-10-01T06:07:00.860Z,119.808
2018-10-01T06:08:06.116Z,119.9771
2018-10-01T06:09:11.297Z,119.0497
2018-10-01T06:10:16.697Z,119.3034
2018-10-01T06:11:21.560Z,119.808
2018-10-01T06:12:27.799Z,119.0497
2018-10-01T06:13:33.249Z,119.5544
2018-10-01T06:14:38.538Z,119.3034
2018-10-01T06:15:44.304Z,118.7987
2018-10-01T06:16:49.227Z,119.3034
2018-10-01T06:17:54.379Z,119.3034
2018-10-01T06:18:59.655Z,119.5544
2018-10-01T06:20:04.811Z,119.0497
2018-10-01T06:21:10.308Z,119.5544
2018-10-01T06:22:15.433Z,119.3034
2018-10-01T06:23:20.858Z,118.545
2018-10-01T06:24:25.957Z,118.545
2018-10-01T06:25:31.119Z,119.5544
2018-10-01T06:26:36.264Z,119.3034
2018-10-01T06:27:41.858Z,119.3034
2018-10-01T06:28:46.211Z,118.7987
2018-10-01T06:29:51.657Z,117.7867
2018-10-01T06:30:56.818Z,118.0403
2018-10-01T06:32:01.803Z,119.3034
2018-10-01T06:33:07.282Z,118.2913
2018-10-01T06:34:12.186Z,117.6176
2018-10-01T06:35:17.690Z,118.2913
2018-10-01T06:36:23.359Z,118.7987
2018-10-01T06:37:28.599Z,118.545
2018-10-01T06:38:34.069Z,118.0403
2018-10-01T06:39:39.461Z,118.545
2018-10-01T06:40:44.659Z,117.6176
2018-10-01T06:41:50.081Z,118.0403
2018-10-01T06:42:55.951Z,117.3665
2018-10-01T06:44:01.125Z,116.6082
2018-10-01T06:45:06.090Z,117.1129
2018-10-01T06:46:11.205Z,117.1129
2018-10-01T06:47:16.364Z,116.6082
2018-10-01T06:48:21.863Z,116.8618
2018-10-01T06:49:26.411Z,117.6176
2018-10-01T06:50:31.679Z,116.6082
2018-10-01T06:51:37.384Z,116.1035
2018-10-01T06:52:42.813Z,116.6082
2018-10-01T06:53:48.352Z,116.3572
2018-10-01T06:54:53.785Z,115.8498
2018-10-01T06:55:58.364Z,115.3452
2018-10-01T06:57:03.750Z,116.1035
2018-10-01T06:58:09.082Z,116.3572
2018-10-01T06:59:14.514Z,115.8498
2018-10-01T07:00:19.742Z,115.5988
2018-10-01T07:01:24.855Z,115.5988
2018-10-01T07:02:29.763Z,116.1035
2018-10-01T07:03:34.732Z,115.5988
2018-10-01T07:04:40.196Z,115.5988
2018-10-01T07:05:46.516Z,114.6714
2018-10-01T07:06:51.730Z,115.8498
2018-10-01T07:07:56.613Z,114.1667
2018-10-01T07:09:01.204Z,114.4203
2018-10-01T07:10:06.510Z,114.4203
2018-10-01T07:11:11.764Z,113.662
2018-10-01T07:12:16.542Z,114.1667
2018-10-01T07:13:21.231Z,114.1667
2018-10-01T07:14:26.659Z,115.3452
2018-10-01T07:15:32.210Z,113.2419
2018-10-01T07:16:37.160Z,114.1667
2018-10-01T07:17:42.305Z,113.2419
2018-10-01T07:18:47.473Z,113.2419
2018-10-01T07:19:52.883Z,114.1667
2018-10-01T07:20:57.486Z,113.4929
2018-10-01T07:22:02.362Z,113.4929
2018-10-01T07:23:08.315Z,113.2419
2018-10-01T07:24:14.318Z,113.4929
2018-10-01T07:25:19.823Z,113.2419
2018-10-01T07:26:24.964Z,112.8217
2018-10-01T07:27:30.366Z,112.3171
2018-10-01T07:28:35.521Z,113.2419
2018-10-01T07:29:40.743Z,112.8217
2018-10-01T07:30:46.638Z,112.3171
2018-10-01T07:31:51.517Z,112.9882
2018-10-01T07:32:56.731Z,113.2419
2018-10-01T07:34:01.914Z,113.2419
2018-10-01T07:35:06.790Z,112.8217
2018-10-01T07:36:12.107Z,112.0634
2018-10-01T07:37:17.242Z,112.5681
2018-10-01T07:38:22.416Z,112.5681
2018-10-01T07:39:27.865Z,112.9882
2018-10-01T07:40:32.761Z,112.3171
2018-10-01T07:41:37.917Z,112.5681
2018-10-01T07:42:43.602Z,112.8217
2018-10-01T07:43:49.051Z,112.8217
2018-10-01T07:44:54.359Z,112.5681
2018-10-01T07:46:00.047Z,112.0634
2018-10-01T07:47:05.350Z,112.3171
2018-10-01T07:48:10.333Z,112.3171
2018-10-01T07:49:15.181Z,112.0634
2018-10-01T07:50:19.854Z,112.5681
2018-10-01T07:51:39.902Z,111.8124
2018-10-01T07:52:44.600Z,111.5587
2018-10-01T07:53:49.486Z,111.3051
2018-10-01T07:54:54.892Z,111.3051
2018-10-01T07:55:59.505Z,111.8124
2018-10-01T07:57:04.599Z,110.803
2018-10-01T07:58:10.071Z,111.8124
2018-10-01T07:59:15.570Z,111.5587
2018-10-01T08:00:21.312Z,110.803
2018-10-01T08:01:27.179Z,111.5587
2018-10-01T08:02:32.362Z,111.054
2018-10-01T08:03:37.627Z,111.5587
2018-10-01T08:04:42.491Z,111.054
2018-10-01T08:05:47.659Z,111.3051
2018-10-01T08:06:52.486Z,111.3051
2018-10-01T08:07:57.852Z,110.6339
2018-10-01T08:09:02.434Z,110.803
2018-10-01T08:10:07.358Z,111.8124
2018-10-01T08:11:12.534Z,110.6339
2018-10-01T08:12:17.694Z,110.803
2018-10-01T08:13:22.945Z,110.803
2018-10-01T08:14:28.329Z,109.8756
2018-10-01T08:15:33.754Z,110.6339
2018-10-01T08:16:39.187Z,110.6339
2018-10-01T08:17:44.731Z,109.8756
2018-10-01T08:18:49.860Z,109.3709
2018-10-01T08:19:55.106Z,109.3709
2018-10-01T08:21:00.667Z,110.1292
2018-10-01T08:22:06.344Z,110.3802
2018-10-01T08:23:10.991Z,109.8756
2018-10-01T08:24:16.516Z,109.6245
2018-10-01T08:25:21.922Z,109.3709
2018-10-01T08:26:27.328Z,109.8756
2018-10-01T08:27:33.343Z,109.8756
2018-10-01T08:28:37.924Z,109.3709
2018-10-01T08:29:43.793Z,110.1292
2018-10-01T08:30:50.103Z,109.8756
2018-10-01T08:31:55.387Z,109.8756
2018-10-01T08:33:00.621Z,109.3709
2018-10-01T08:34:06.128Z,109.1199
2018-10-01T08:35:10.945Z,109.8756
2018-10-01T08:36:16.654Z,110.6339
2018-10-01T08:37:22.303Z,109.3709
2018-10-01T08:38:28.106Z,109.1199
2018-10-01T08:39:34.251Z,109.1199
2018-10-01T08:40:39.464Z,108.8662
2018-10-01T08:41:44.614Z,108.195
2018-10-01T08:42:49.929Z,109.3709
2018-10-01T08:43:55.126Z,108.3615
2018-10-01T08:45:00.353Z,108.3615
2018-10-01T08:46:06.150Z,108.3615
2018-10-01T08:47:11.812Z,107.9414
2018-10-01T08:48:17.482Z,107.4367
2018-10-01T08:49:22.642Z,107.9414
2018-10-01T08:50:28.529Z,108.3615
2018-10-01T08:51:34.288Z,107.9414
2018-10-01T08:52:39.576Z,107.1857
2018-10-01T08:53:44.173Z,107.9414
2018-10-01T08:54:49.592Z,107.9414
2018-10-01T08:55:54.747Z,107.4367
2018-10-01T08:56:59.934Z,107.6877
2018-10-01T08:58:05.557Z,107.4367
2018-10-01T08:59:11.315Z,107.6877
2018-10-01T09:00:16.809Z,107.6877
2018-10-01T09:01:22.235Z,107.1857
2018-10-01T09:02:27.941Z,107.4367
2018-10-01T09:03:33.339Z,108.3615
2018-10-01T09:04:38.437Z,106.932
2018-10-01T09:05:43.325Z,107.9414
2018-10-01T09:06:48.982Z,108.195
2018-10-01T09:07:54.291Z,107.6877
2018-10-01T09:08:59.517Z,106.4273
2018-10-01T09:10:05.360Z,107.6877
2018-10-01T09:11:10.393Z,107.9414
2018-10-01T09:12:15.498Z,107.4367
2018-10-01T09:13:20.892Z,107.1857
2018-10-01T09:14:26.295Z,107.6877
2018-10-01T09:15:32.481Z,107.1857
2018-10-01T09:16:38.021Z,108.3615
2018-10-01T09:17:42.880Z,107.1857
2018-10-01T09:18:47.987Z,106.932
2018-10-01T09:19:52.851Z,106.4273
2018-10-01T09:20:58.035Z,107.1857
2018-10-01T09:22:02.825Z,107.1857
2018-10-01T09:23:07.970Z,106.681
2018-10-01T09:24:13.556Z,106.932
2018-10-01T09:25:19.363Z,106.681
2018-10-01T09:26:24.407Z,106.4273
2018-10-01T09:27:30.294Z,106.681
2018-10-01T09:28:35.723Z,106.681
2018-10-01T09:29:41.227Z,106.932
2018-10-01T09:30:46.695Z,105.9226
2018-10-01T09:31:51.865Z,106.681
2018-10-01T09:32:57.303Z,106.4273
2018-10-01T09:34:02.441Z,106.932
2018-10-01T09:35:08.106Z,106.4273
2018-10-01T09:36:13.115Z,107.4367
2018-10-01T09:37:18.679Z,106.932
2018-10-01T09:38:24.019Z,106.932
2018-10-01T09:39:29.968Z,106.932
2018-10-01T09:40:35.666Z,106.1763
2018-10-01T09:41:41.377Z,106.1763
2018-10-01T09:42:46.859Z,106.4273
2018-10-01T09:43:52.068Z,106.4273
2018-10-01T09:44:57.209Z,106.4273
2018-10-01T09:46:03.471Z,106.1763
2018-10-01T09:47:08.512Z,105.9226
2018-10-01T09:48:13.595Z,106.932
2018-10-01T09:49:19.389Z,106.4273
2018-10-01T09:50:24.618Z,106.681
2018-10-01T09:51:29.921Z,106.4273
2018-10-01T09:52:35.662Z,105.9226
2018-10-01T09:53:40.736Z,105.7535
2018-10-01T09:54:46.151Z,106.932
2018-10-01T09:55:50.812Z,106.681
2018-10-01T09:56:56.066Z,107.9414
2018-10-01T09:58:01.780Z,107.1857
2018-10-01T09:59:06.725Z,106.681
2018-10-01T10:00:11.977Z,107.9414
2018-10-01T10:01:17.682Z,107.1857
2018-10-01T10:02:22.336Z,106.681
2018-10-01T10:03:43.180Z,106.932
2018-10-01T10:04:48.573Z,106.932
2018-10-01T10:05:53.908Z,107.6877
2018-10-01T10:06:59.684Z,107.1857
2018-10-01T10:08:04.445Z,106.681
2018-10-01T10:09:09.734Z,106.932
2018-10-01T10:10:16.094Z,108.195
2018-10-01T10:11:21.739Z,107.4367
2018-10-01T10:12:42.214Z,107.1857
2018-10-01T10:13:47.344Z,107.1857
2018-10-01T10:14:52.209Z,107.4367
2018-10-01T10:15:57.766Z,106.681
2018-10-01T10:17:02.835Z,106.4273
2018-10-01T10:18:08.578Z,106.4273
2018-10-01T10:19:13.989Z,106.4273
2018-10-01T10:20:19.212Z,107.6877
2018-10-01T10:22:45.130Z,107.4367
2018-10-01T10:23:50.282Z,107.1857
2018-10-01T10:24:55.687Z,107.4367
2018-10-01T10:26:01.037Z,107.1857
2018-10-01T10:27:06.494Z,106.932
2018-10-01T10:28:13.488Z,106.681
2018-10-01T10:29:18.511Z,107.4367
2018-10-01T10:30:23.722Z,106.1763
2018-10-01T10:31:28.968Z,106.1763
2018-10-01T10:32:34.231Z,106.681
2018-10-01T10:33:40.395Z,105.9226
2018-10-01T10:34:45.646Z,106.932
2018-10-01T10:35:50.229Z,105.5025
2018-10-01T10:36:55.778Z,106.4273
2018-10-01T10:38:01.500Z,106.681
2018-10-01T10:39:06.436Z,105.7535
2018-10-01T10:40:11.995Z,106.1763
2018-10-01T10:41:17.310Z,106.932
2018-10-01T10:42:22.488Z,107.1857
2018-10-01T10:43:28.097Z,106.681
2018-10-01T10:44:33.575Z,106.932
2018-10-01T10:45:39.215Z,106.681
2018-10-01T10:46:44.672Z,106.4273
2018-10-01T10:47:49.561Z,107.4367
2018-10-01T10:48:55.180Z,107.9414
2018-10-01T10:50:00.848Z,106.4273
2018-10-01T10:51:05.872Z,106.932
2018-10-01T10:52:11.553Z,107.1857
2018-10-01T10:53:16.432Z,106.932
2018-10-01T10:54:21.680Z,106.4273
2018-10-01T10:55:26.835Z,106.4273
2018-10-01T10:56:32.213Z,106.932
2018-10-01T10:57:38.097Z,105.9226
2018-10-01T10:58:42.962Z,106.681
2018-10-01T10:59:48.375Z,107.6877
2018-10-01T11:00:54.249Z,106.4273
2018-10-01T11:01:59.218Z,106.681
2018-10-01T11:03:04.151Z,106.932
2018-10-01T11:04:09.418Z,107.4367
2018-10-01T11:05:14.562Z,106.681
2018-10-01T11:06:20.063Z,106.681
2018-10-01T11:07:25.748Z,106.932
2018-10-01T11:08:31.110Z,107.4367
2018-10-01T11:09:36.727Z,107.9414
2018-10-01T11:10:42.182Z,107.6877
2018-10-01T11:11:47.528Z,107.9414
2018-10-01T11:12:53.278Z,107.4367
2018-10-01T11:13:59.395Z,106.932
2018-10-01T11:15:06.287Z,108.195
2018-10-01T11:16:12.743Z,108.195
2018-10-01T11:17:18.304Z,107.9414
2018-10-01T11:18:23.566Z,108.3615
2018-10-01T11:19:28.229Z,109.1199
2018-10-01T11:20:34.231Z,108.6152
2018-10-01T11:21:41.523Z,108.6152
2018-10-01T11:22:47.019Z,109.1199
2018-10-01T11:23:51.877Z,108.8662
2018-10-01T11:24:57.110Z,107.4367
2018-10-01T11:26:01.982Z,108.6152
2018-10-01T11:27:07.400Z,108.6152
2018-10-01T11:28:13.028Z,108.195
2018-10-01T11:29:18.163Z,108.3615
2018-10-01T11:30:23.263Z,108.3615
2018-10-01T11:31:28.677Z,107.9414
2018-10-01T11:32:33.892Z,108.6152
2018-10-01T11:33:40.307Z,108.195
2018-10-01T11:34:46.443Z,108.3615
2018-10-01T11:35:51.756Z,109.1199
2018-10-01T11:36:56.929Z,108.195
2018-10-01T11:38:01.925Z,108.195
2018-10-01T11:39:06.737Z,107.6877
2018-10-01T11:40:12.195Z,107.4367
2018-10-01T11:41:17.352Z,106.932
2018-10-01T11:42:22.527Z,106.1763
2018-10-01T11:43:28.036Z,106.1763
2018-10-01T11:44:33.231Z,106.1763
2018-10-01T11:45:39.592Z,105.2489
2018-10-01T11:46:45.322Z,106.1763
2018-10-01T11:47:50.873Z,106.1763
2018-10-01T11:48:56.667Z,106.932
2018-10-01T11:50:00.952Z,106.1763
2018-10-01T11:51:06.131Z,107.4367
2018-10-01T11:52:11.124Z,106.681
2018-10-01T11:53:16.273Z,106.4273
2018-10-01T11:54:22.287Z,106.932
2018-10-01T11:55:28.603Z,106.4273
2018-10-01T11:56:33.493Z,107.1857
2018-10-01T11:57:39.525Z,106.4273
2018-10-01T11:58:45.153Z,106.4273
2018-10-01T11:59:50.805Z,105.9226
2018-10-01T12:00:56.556Z,105.9226
2018-10-01T12:02:01.479Z,105.5025
2018-10-01T12:03:06.846Z,104.9978
2018-10-01T12:04:12.780Z,105.5025
2018-10-01T12:05:17.734Z,106.1763
2018-10-01T12:06:23.278Z,105.9226
2018-10-01T12:07:28.597Z,105.6716
2018-10-01T12:08:33.747Z,106.4273
2018-10-01T12:09:40.678Z,107.1857
2018-10-01T12:10:46.567Z,107.1857
2018-10-01T12:11:52.030Z,106.681
2018-10-01T12:12:57.146Z,105.9226
2018-10-01T12:14:02.296Z,106.681
2018-10-01T12:15:07.636Z,106.4273
2018-10-01T12:16:13.888Z,105.7535
2018-10-01T12:17:19.731Z,107.4367
2018-10-01T12:19:45.327Z,106.1763
2018-10-01T12:20:50.223Z,105.9226
2018-10-01T12:21:55.424Z,105.7535
2018-10-01T12:23:00.692Z,105.2489
2018-10-01T12:24:05.891Z,104.9978
2018-10-01T12:25:11.148Z,104.9978
2018-10-01T12:26:16.179Z,105.2489
2018-10-01T12:27:21.553Z,105.7535
2018-10-01T12:28:27.751Z,104.9978
2018-10-01T12:29:32.623Z,104.5777
2018-10-01T12:30:37.425Z,100.7094
2018-10-01T12:31:42.857Z,101.6342
2018-10-01T12:32:48.060Z,102.6435
2018-10-01T12:33:53.822Z,100.7094
2018-10-01T12:34:59.086Z,100.4583
2018-10-01T12:36:04.676Z,99.9537
2018-10-01T12:37:10.031Z,100.7094
2018-10-01T12:38:14.899Z,99.7026
2018-10-01T12:39:21.213Z,100.2073
2018-10-01T12:40:26.601Z,99.1979
2018-10-01T12:41:31.207Z,100.2073
2018-10-01T12:42:36.837Z,98.6933
2018-10-01T12:43:42.610Z,99.7026
2018-10-01T12:44:48.044Z,99.7026
2018-10-01T12:45:53.723Z,98.6933
2018-10-01T12:46:59.151Z,99.449
2018-10-01T12:48:04.230Z,99.1979
2018-10-01T12:49:09.183Z,98.5242
2018-10-01T12:50:14.126Z,98.5242
2018-10-01T12:51:20.159Z,98.6933
2018-10-01T12:52:25.866Z,99.1979
2018-10-01T12:53:31.561Z,99.1979
2018-10-01T12:54:37.116Z,100.4583
2018-10-01T12:55:42.279Z,98.9443
2018-10-01T12:56:47.775Z,100.2073
2018-10-01T12:57:53.520Z,99.7026